sensor_id;sensor_type;location;lat;lon;timestamp;pressure;altitude;pressure_sealevel;temperature;humidity
44140;BME280;29803;51.048;4.686;2023-04-03T00:02:23;102894.03;;;0.96;100.00
44140;BME280;29803;51.048;4.686;2023-04-03T00:04:54;102899.47;;;0.92;100.00
44140;BME280;29803;51.048;4.686;2023-04-03T00:07:25;102896.16;;;0.85;100.00
44140;BME280;29803;51.048;4.686;2023-04-03T00:09:55;102902.50;;;0.80;100.00
44140;BME280;29803;51.048;4.686;2023-04-03T00:12:26;102896.44;;;0.77;100.00
44140;BME280;29803;51.048;4.686;2023-04-03T00:14:56;102905.22;;;0.78;100.00
44140;BME280;29803;51.048;4.686;2023-04-03T00:17:27;102904.44;;;0.74;100.00
44140;BME280;29803;51.048;4.686;2023-04-03T00:19:57;102912.38;;;0.74;100.00
44140;BME280;29803;51.048;4.686;2023-04-03T00:22:27;102910.72;;;0.72;100.00
44140;BME280;29803;51.048;4.686;2023-04-03T00:24:58;102916.09;;;0.69;100.00
44140;BME280;29803;51.048;4.686;2023-04-03T00:27:29;102909.97;;;0.68;100.00
44140;BME280;29803;51.048;4.686;2023-04-03T00:29:59;102910.00;;;0.67;100.00
44140;BME280;29803;51.048;4.686;2023-04-03T00:32:30;102915.25;;;0.68;100.00
44140;BME280;29803;51.048;4.686;2023-04-03T00:35:00;102914.31;;;0.69;100.00
44140;BME280;29803;51.048;4.686;2023-04-03T00:37:31;102915.19;;;0.70;100.00
44140;BME280;29803;51.048;4.686;2023-04-03T00:40:02;102920.38;;;0.73;100.00
44140;BME280;29803;51.048;4.686;2023-04-03T00:42:33;102921.22;;;0.73;100.00
44140;BME280;29803;51.048;4.686;2023-04-03T00:47:34;102919.59;;;0.69;100.00
44140;BME280;29803;51.048;4.686;2023-04-03T00:50:05;102917.94;;;0.67;100.00
44140;BME280;29803;51.048;4.686;2023-04-03T00:52:37;102917.09;;;0.66;100.00
44140;BME280;29803;51.048;4.686;2023-04-03T00:55:09;102911.81;;;0.65;100.00
44140;BME280;29803;51.048;4.686;2023-04-03T00:57:40;102910.97;;;0.64;100.00
44140;BME280;29803;51.048;4.686;2023-04-03T01:00:14;102912.81;;;0.62;100.00
44140;BME280;29803;51.048;4.686;2023-04-03T01:02:46;102919.00;;;0.61;100.00
44140;BME280;29803;51.048;4.686;2023-04-03T01:05:17;102904.97;;;0.59;100.00
44140;BME280;29803;51.048;4.686;2023-04-03T01:07:49;102917.25;;;0.60;100.00
44140;BME280;29803;51.048;4.686;2023-04-03T01:10:21;102906.81;;;0.57;100.00
44140;BME280;29803;51.048;4.686;2023-04-03T01:12:52;102901.53;;;0.57;100.00
44140;BME280;29803;51.048;4.686;2023-04-03T01:15:42;102906.88;;;0.56;100.00
44140;BME280;29803;51.048;4.686;2023-04-03T01:18:13;102909.56;;;0.54;100.00
44140;BME280;29803;51.048;4.686;2023-04-03T01:23:44;102918.47;;;0.51;100.00
44140;BME280;29803;51.048;4.686;2023-04-03T01:26:39;102918.53;;;0.48;100.00
44140;BME280;29803;51.048;4.686;2023-04-03T01:29:12;102916.88;;;0.46;100.00
44140;BME280;29803;51.048;4.686;2023-04-03T01:32:01;102916.91;;;0.44;100.00
44140;BME280;29803;51.048;4.686;2023-04-03T01:34:48;102915.25;;;0.42;100.00
44140;BME280;29803;51.048;4.686;2023-04-03T01:37:19;102912.69;;;0.39;100.00
44140;BME280;29803;51.048;4.686;2023-04-03T01:39:50;102918.03;;;0.37;100.00
44140;BME280;29803;51.048;4.686;2023-04-03T01:42:20;102919.81;;;0.37;100.00
44140;BME280;29803;51.048;4.686;2023-04-03T01:44:51;102921.59;;;0.36;100.00
44140;BME280;29803;51.048;4.686;2023-04-03T01:47:21;102922.56;;;0.34;100.00
44140;BME280;29803;51.048;4.686;2023-04-03T01:49:52;102920.03;;;0.31;100.00
44140;BME280;29803;51.048;4.686;2023-04-03T01:52:23;102927.97;;;0.29;100.00
44140;BME280;29803;51.048;4.686;2023-04-03T01:54:54;102923.66;;;0.27;100.00
44140;BME280;29803;51.048;4.686;2023-04-03T01:57:25;102923.69;;;0.25;100.00
44140;BME280;29803;51.048;4.686;2023-04-03T01:59:55;102929.97;;;0.22;100.00
44140;BME280;29803;51.048;4.686;2023-04-03T02:02:26;102928.22;;;0.21;100.00
44140;BME280;29803;51.048;4.686;2023-04-03T02:04:56;102924.75;;;0.21;100.00
44140;BME280;29803;51.048;4.686;2023-04-03T02:07:27;102922.97;;;0.21;100.00
44140;BME280;29803;51.048;4.686;2023-04-03T02:09:57;102936.25;;;0.18;100.00
44140;BME280;29803;51.048;4.686;2023-04-03T02:12:28;102935.38;;;0.18;100.00
44140;BME280;29803;51.048;4.686;2023-04-03T02:14:58;102932.81;;;0.15;100.00
44140;BME280;29803;51.048;4.686;2023-04-03T02:17:29;102937.34;;;0.11;100.00
44140;BME280;29803;51.048;4.686;2023-04-03T02:19:59;102932.16;;;0.08;100.00
44140;BME280;29803;51.048;4.686;2023-04-03T02:22:30;102934.91;;;0.05;100.00
44140;BME280;29803;51.048;4.686;2023-04-03T02:25:01;102936.72;;;0.03;100.00
44140;BME280;29803;51.048;4.686;2023-04-03T02:27:32;102932.41;;;0.01;100.00
44140;BME280;29803;51.048;4.686;2023-04-03T02:30:04;102935.91;;;0.01;100.00
44140;BME280;29803;51.048;4.686;2023-04-03T02:32:35;102937.63;;;0.02;100.00
44140;BME280;29803;51.048;4.686;2023-04-03T02:35:06;102937.69;;;0.01;100.00
44140;BME280;29803;51.048;4.686;2023-04-03T02:37:38;102938.59;;;-0.01;100.00
44140;BME280;29803;51.048;4.686;2023-04-03T02:40:09;102940.34;;;-0.01;100.00
44140;BME280;29803;51.048;4.686;2023-04-03T02:42:39;102942.13;;;-0.02;100.00
44140;BME280;29803;51.048;4.686;2023-04-03T02:45:10;102943.97;;;-0.04;100.00
44140;BME280;29803;51.048;4.686;2023-04-03T02:47:40;102942.19;;;-0.03;100.00
44140;BME280;29803;51.048;4.686;2023-04-03T02:50:11;102938.63;;;-0.02;100.00
44140;BME280;29803;51.048;4.686;2023-04-03T02:52:41;102947.47;;;-0.03;100.00
44140;BME280;29803;51.048;4.686;2023-04-03T02:55:14;102943.13;;;-0.06;100.00
44140;BME280;29803;51.048;4.686;2023-04-03T02:57:46;102951.06;;;-0.06;100.00
44140;BME280;29803;51.048;4.686;2023-04-03T03:00:16;102947.59;;;-0.08;100.00
44140;BME280;29803;51.048;4.686;2023-04-03T03:02:48;102955.72;;;-0.14;100.00
44140;BME280;29803;51.048;4.686;2023-04-03T03:05:19;102951.44;;;-0.18;100.00
44140;BME280;29803;51.048;4.686;2023-04-03T03:07:49;102961.25;;;-0.23;100.00
44140;BME280;29803;51.048;4.686;2023-04-03T03:10:20;102959.56;;;-0.26;100.00
44140;BME280;29803;51.048;4.686;2023-04-03T03:12:50;102952.56;;;-0.27;100.00
44140;BME280;29803;51.048;4.686;2023-04-03T03:15:21;102954.38;;;-0.29;100.00
44140;BME280;29803;51.048;4.686;2023-04-03T03:17:51;102951.69;;;-0.27;100.00
44140;BME280;29803;51.048;4.686;2023-04-03T03:20:22;102957.88;;;-0.28;100.00
44140;BME280;29803;51.048;4.686;2023-04-03T03:22:52;102958.81;;;-0.31;100.00
44140;BME280;29803;51.048;4.686;2023-04-03T03:25:23;102950.91;;;-0.31;100.00
44140;BME280;29803;51.048;4.686;2023-04-03T03:27:53;102965.03;;;-0.32;100.00
44140;BME280;29803;51.048;4.686;2023-04-03T03:30:24;102960.66;;;-0.33;100.00
44140;BME280;29803;51.048;4.686;2023-04-03T03:32:54;102954.59;;;-0.36;100.00
44140;BME280;29803;51.048;4.686;2023-04-03T03:35:25;102962.63;;;-0.39;100.00
44140;BME280;29803;51.048;4.686;2023-04-03T03:37:55;102963.50;;;-0.40;100.00
44140;BME280;29803;51.048;4.686;2023-04-03T03:40:26;102953.88;;;-0.41;100.00
44140;BME280;29803;51.048;4.686;2023-04-03T03:42:56;102965.28;;;-0.41;100.00
44140;BME280;29803;51.048;4.686;2023-04-03T03:45:27;102968.78;;;-0.40;100.00
44140;BME280;29803;51.048;4.686;2023-04-03T03:47:57;102972.31;;;-0.40;100.00
44140;BME280;29803;51.048;4.686;2023-04-03T03:50:28;102964.47;;;-0.43;100.00
44140;BME280;29803;51.048;4.686;2023-04-03T03:52:58;102971.59;;;-0.46;100.00
44140;BME280;29803;51.048;4.686;2023-04-03T03:55:29;102972.47;;;-0.46;100.00
44140;BME280;29803;51.048;4.686;2023-04-03T03:57:59;102977.72;;;-0.46;100.00
44140;BME280;29803;51.048;4.686;2023-04-03T04:00:31;102975.09;;;-0.46;100.00
44140;BME280;29803;51.048;4.686;2023-04-03T04:03:01;102980.41;;;-0.47;100.00
44140;BME280;29803;51.048;4.686;2023-04-03T04:05:32;102975.22;;;-0.50;100.00
44140;BME280;29803;51.048;4.686;2023-04-03T04:08:02;102967.41;;;-0.54;100.00
44140;BME280;29803;51.048;4.686;2023-04-03T04:10:34;102978.00;;;-0.55;100.00
44140;BME280;29803;51.048;4.686;2023-04-03T04:13:04;102986.78;;;-0.55;100.00
44140;BME280;29803;51.048;4.686;2023-04-03T04:15:35;102982.50;;;-0.59;100.00
44140;BME280;29803;51.048;4.686;2023-04-03T04:18:05;102987.81;;;-0.60;100.00
44140;BME280;29803;51.048;4.686;2023-04-03T04:20:36;102986.16;;;-0.64;100.00
44140;BME280;29803;51.048;4.686;2023-04-03T04:23:06;102987.03;;;-0.64;100.00
44140;BME280;29803;51.048;4.686;2023-04-03T04:25:37;102985.31;;;-0.66;100.00
44140;BME280;29803;51.048;4.686;2023-04-03T04:28:07;102989.75;;;-0.67;100.00
44140;BME280;29803;51.048;4.686;2023-04-03T04:30:38;102990.59;;;-0.66;100.00
44140;BME280;29803;51.048;4.686;2023-04-03T04:33:08;102987.97;;;-0.66;100.00
44140;BME280;29803;51.048;4.686;2023-04-03T04:35:40;102989.75;;;-0.67;100.00
44140;BME280;29803;51.048;4.686;2023-04-03T04:38:11;102988.94;;;-0.69;100.00
44140;BME280;29803;51.048;4.686;2023-04-03T04:40:42;102988.06;;;-0.69;100.00
44140;BME280;29803;51.048;4.686;2023-04-03T04:43:12;102988.94;;;-0.69;100.00
44140;BME280;29803;51.048;4.686;2023-04-03T04:45:44;102984.53;;;-0.68;100.00
44140;BME280;29803;51.048;4.686;2023-04-03T04:48:15;102993.28;;;-0.68;100.00
44140;BME280;29803;51.048;4.686;2023-04-03T04:50:45;102981.94;;;-0.70;100.00
44140;BME280;29803;51.048;4.686;2023-04-03T04:53:16;102984.59;;;-0.71;100.00
44140;BME280;29803;51.048;4.686;2023-04-03T04:55:46;102994.31;;;-0.73;100.00
44140;BME280;29803;51.048;4.686;2023-04-03T04:58:16;102988.22;;;-0.75;100.00
44140;BME280;29803;51.048;4.686;2023-04-03T05:00:47;102988.31;;;-0.79;100.00
44140;BME280;29803;51.048;4.686;2023-04-03T05:03:17;102991.06;;;-0.83;100.00
44140;BME280;29803;51.048;4.686;2023-04-03T05:05:48;102990.28;;;-0.87;100.00
44140;BME280;29803;51.048;4.686;2023-04-03T05:08:18;102987.69;;;-0.88;100.00
44140;BME280;29803;51.048;4.686;2023-04-03T05:10:49;102992.97;;;-0.88;100.00
44140;BME280;29803;51.048;4.686;2023-04-03T05:13:20;102991.22;;;-0.89;100.00
44140;BME280;29803;51.048;4.686;2023-04-03T05:15:50;102997.25;;;-0.86;100.00
44140;BME280;29803;51.048;4.686;2023-04-03T05:18:21;102995.38;;;-0.81;100.00
44140;BME280;29803;51.048;4.686;2023-04-03T05:20:51;102997.03;;;-0.76;100.00
44140;BME280;29803;51.048;4.686;2023-04-03T05:23:22;103000.47;;;-0.73;100.00
44140;BME280;29803;51.048;4.686;2023-04-03T05:25:53;102997.75;;;-0.70;100.00
44140;BME280;29803;51.048;4.686;2023-04-03T05:28:23;103010.81;;;-0.67;100.00
44140;BME280;29803;51.048;4.686;2023-04-03T05:30:55;103008.13;;;-0.64;100.00
44140;BME280;29803;51.048;4.686;2023-04-03T05:33:27;103006.28;;;-0.60;100.00
44140;BME280;29803;51.048;4.686;2023-04-03T05:36:02;103004.44;;;-0.58;100.00
44140;BME280;29803;51.048;4.686;2023-04-03T05:38:33;103007.91;;;-0.56;100.00
44140;BME280;29803;51.048;4.686;2023-04-03T05:41:04;103007.81;;;-0.53;100.00
44140;BME280;29803;51.048;4.686;2023-04-03T05:43:34;103010.41;;;-0.50;100.00
44140;BME280;29803;51.048;4.686;2023-04-03T05:46:23;103005.84;;;-0.45;100.00
44140;BME280;29803;51.048;4.686;2023-04-03T05:48:53;103004.81;;;-0.39;100.00
44140;BME280;29803;51.048;4.686;2023-04-03T05:51:29;102997.66;;;-0.36;100.00
44140;BME280;29803;51.048;4.686;2023-04-03T05:54:21;102999.22;;;-0.29;100.00
44140;BME280;29803;51.048;4.686;2023-04-03T05:56:53;103011.31;;;-0.21;100.00
44140;BME280;29803;51.048;4.686;2023-04-03T05:59:24;103005.88;;;-0.15;100.00
44140;BME280;29803;51.048;4.686;2023-04-03T06:01:54;103002.16;;;-0.08;100.00
44140;BME280;29803;51.048;4.686;2023-04-03T06:04:25;103008.03;;;0.02;100.00
44140;BME280;29803;51.048;4.686;2023-04-03T06:06:57;103011.22;;;0.13;100.00
44140;BME280;29803;51.048;4.686;2023-04-03T06:09:29;103011.25;;;0.41;100.00
44140;BME280;29803;51.048;4.686;2023-04-03T06:12:00;103008.06;;;1.11;100.00
44140;BME280;29803;51.048;4.686;2023-04-03T06:14:31;103009.28;;;1.99;100.00
44140;BME280;29803;51.048;4.686;2023-04-03T06:17:02;103013.22;;;2.78;100.00
44140;BME280;29803;51.048;4.686;2023-04-03T06:19:32;103020.03;;;3.46;100.00
44140;BME280;29803;51.048;4.686;2023-04-03T06:22:03;103027.09;;;4.05;100.00
44140;BME280;29803;51.048;4.686;2023-04-03T06:24:34;103020.25;;;4.56;100.00
44140;BME280;29803;51.048;4.686;2023-04-03T06:27:05;103021.59;;;4.84;100.00
44140;BME280;29803;51.048;4.686;2023-04-03T06:29:36;103009.22;;;5.00;100.00
44140;BME280;29803;51.048;4.686;2023-04-03T06:32:07;103017.44;;;5.30;100.00
44140;BME280;29803;51.048;4.686;2023-04-03T06:34:37;103019.22;;;5.64;100.00
44140;BME280;29803;51.048;4.686;2023-04-03T06:37:25;103016.91;;;5.74;100.00
44140;BME280;29803;51.048;4.686;2023-04-03T06:39:56;103016.13;;;5.72;100.00
44140;BME280;29803;51.048;4.686;2023-04-03T06:42:27;103020.47;;;5.90;100.00
44140;BME280;29803;51.048;4.686;2023-04-03T06:44:57;103020.97;;;6.14;100.00
44140;BME280;29803;51.048;4.686;2023-04-03T06:47:28;103022.53;;;6.34;100.00
44140;BME280;29803;51.048;4.686;2023-04-03T06:49:58;103027.44;;;6.26;100.00
44140;BME280;29803;51.048;4.686;2023-04-03T06:52:29;103018.66;;;6.08;100.00
44140;BME280;29803;51.048;4.686;2023-04-03T06:54:59;103024.75;;;6.10;100.00
44140;BME280;29803;51.048;4.686;2023-04-03T06:57:30;103023.53;;;6.00;100.00
44140;BME280;29803;51.048;4.686;2023-04-03T07:00:02;103024.00;;;6.24;100.00
44140;BME280;29803;51.048;4.686;2023-04-03T07:02:34;103021.91;;;6.61;100.00
44140;BME280;29803;51.048;4.686;2023-04-03T07:05:05;103027.34;;;6.59;100.00
44140;BME280;29803;51.048;4.686;2023-04-03T07:07:36;103030.03;;;6.28;100.00
44140;BME280;29803;51.048;4.686;2023-04-03T07:10:08;103040.59;;;6.13;100.00
44140;BME280;29803;51.048;4.686;2023-04-03T07:12:39;103034.06;;;6.51;100.00
44140;BME280;29803;51.048;4.686;2023-04-03T07:15:10;103029.78;;;6.48;100.00
44140;BME280;29803;51.048;4.686;2023-04-03T07:17:42;103036.03;;;6.79;100.00
44140;BME280;29803;51.048;4.686;2023-04-03T07:20:12;103039.84;;;6.59;100.00
44140;BME280;29803;51.048;4.686;2023-04-03T07:22:43;103039.03;;;6.72;100.00
44140;BME280;29803;51.048;4.686;2023-04-03T07:25:13;103041.22;;;6.96;100.00
44140;BME280;29803;51.048;4.686;2023-04-03T07:27:44;103042.63;;;6.87;100.00
44140;BME280;29803;51.048;4.686;2023-04-03T07:30:15;103049.19;;;7.12;100.00
44140;BME280;29803;51.048;4.686;2023-04-03T07:32:45;103043.97;;;7.10;100.00
44140;BME280;29803;51.048;4.686;2023-04-03T07:35:16;103049.13;;;7.13;100.00
44140;BME280;29803;51.048;4.686;2023-04-03T07:37:47;103048.03;;;7.01;100.00
44140;BME280;29803;51.048;4.686;2023-04-03T07:40:18;103050.56;;;6.89;100.00
44140;BME280;29803;51.048;4.686;2023-04-03T07:42:48;103051.53;;;7.18;100.00
44140;BME280;29803;51.048;4.686;2023-04-03T07:45:19;103053.44;;;7.60;100.00
44140;BME280;29803;51.048;4.686;2023-04-03T07:47:49;103058.22;;;8.26;100.00
44140;BME280;29803;51.048;4.686;2023-04-03T07:50:20;103059.03;;;8.70;100.00
44140;BME280;29803;51.048;4.686;2023-04-03T07:52:50;103067.81;;;8.99;100.00
44140;BME280;29803;51.048;4.686;2023-04-03T07:55:23;103065.09;;;8.45;100.00
44140;BME280;29803;51.048;4.686;2023-04-03T07:57:53;103071.41;;;8.29;100.00
44140;BME280;29803;51.048;4.686;2023-04-03T08:00:24;103071.19;;;8.47;100.00
44140;BME280;29803;51.048;4.686;2023-04-03T08:02:54;103069.94;;;8.52;100.00
44140;BME280;29803;51.048;4.686;2023-04-03T08:05:25;103068.09;;;8.67;100.00
44140;BME280;29803;51.048;4.686;2023-04-03T08:07:56;103074.38;;;8.39;100.00
44140;BME280;29803;51.048;4.686;2023-04-03T08:10:27;103074.53;;;8.22;100.00
44140;BME280;29803;51.048;4.686;2023-04-03T08:13:01;103071.06;;;9.04;100.00
44140;BME280;29803;51.048;4.686;2023-04-03T08:15:31;103065.06;;;8.86;100.00
44140;BME280;29803;51.048;4.686;2023-04-03T08:18:02;103076.38;;;8.77;100.00
44140;BME280;29803;51.048;4.686;2023-04-03T08:20:33;103072.78;;;9.18;100.00
44140;BME280;29803;51.048;4.686;2023-04-03T08:23:04;103071.00;;;9.31;100.00
44140;BME280;29803;51.048;4.686;2023-04-03T08:25:51;103068.13;;;9.34;100.00
44140;BME280;29803;51.048;4.686;2023-04-03T08:28:21;103064.41;;;9.88;100.00
44140;BME280;29803;51.048;4.686;2023-04-03T08:30:52;103068.03;;;9.74;100.00
44140;BME280;29803;51.048;4.686;2023-04-03T08:33:22;103069.88;;;9.60;100.00
44140;BME280;29803;51.048;4.686;2023-04-03T08:35:53;103060.78;;;9.76;100.00
44140;BME280;29803;51.048;4.686;2023-04-03T08:38:23;103072.03;;;9.81;100.00
44140;BME280;29803;51.048;4.686;2023-04-03T08:49:40;103073.97;;;9.79;100.00
44140;BME280;29803;51.048;4.686;2023-04-03T08:52:19;103076.06;;;10.50;100.00
44140;BME280;29803;51.048;4.686;2023-04-03T08:54:51;103073.59;;;10.22;100.00
44140;BME280;29803;51.048;4.686;2023-04-03T08:57:42;103068.38;;;10.70;100.00
44140;BME280;29803;51.048;4.686;2023-04-03T09:00:16;103071.75;;;10.84;100.00
44140;BME280;29803;51.048;4.686;2023-04-03T09:02:51;103069.63;;;10.40;100.00
44140;BME280;29803;51.048;4.686;2023-04-03T09:05:43;103065.03;;;9.78;100.00
44140;BME280;29803;51.048;4.686;2023-04-03T09:11:24;103070.63;;;9.63;100.00
44140;BME280;29803;51.048;4.686;2023-04-03T09:14:03;103061.63;;;10.02;100.00
44140;BME280;29803;51.048;4.686;2023-04-03T09:16:49;103057.44;;;10.10;100.00
44140;BME280;29803;51.048;4.686;2023-04-03T09:22:31;103068.81;;;10.63;100.00
44140;BME280;29803;51.048;4.686;2023-04-03T09:25:15;103065.41;;;11.09;100.00
44140;BME280;29803;51.048;4.686;2023-04-03T09:27:47;103061.09;;;11.31;100.00
44140;BME280;29803;51.048;4.686;2023-04-03T09:30:21;103067.53;;;11.28;100.00
44140;BME280;29803;51.048;4.686;2023-04-03T09:32:54;103057.56;;;11.06;100.00
44140;BME280;29803;51.048;4.686;2023-04-03T09:35:27;103064.72;;;10.95;100.00
44140;BME280;29803;51.048;4.686;2023-04-03T09:40:44;103065.28;;;11.46;100.00
44140;BME280;29803;51.048;4.686;2023-04-03T09:43:21;103057.22;;;11.46;100.00
44140;BME280;29803;51.048;4.686;2023-04-03T09:45:53;103057.63;;;10.70;100.00
44140;BME280;29803;51.048;4.686;2023-04-03T09:48:25;103057.16;;;10.39;100.00
44140;BME280;29803;51.048;4.686;2023-04-03T09:51:01;103046.53;;;10.50;100.00
44140;BME280;29803;51.048;4.686;2023-04-03T09:53:33;103044.25;;;10.57;100.00
44140;BME280;29803;51.048;4.686;2023-04-03T10:01:32;103030.88;;;11.16;100.00
44140;BME280;29803;51.048;4.686;2023-04-03T10:06:58;103031.66;;;10.21;100.00
44140;BME280;29803;51.048;4.686;2023-04-03T10:09:32;103022.00;;;10.31;100.00
44140;BME280;29803;51.048;4.686;2023-04-03T10:12:06;103021.75;;;10.71;100.00
44140;BME280;29803;51.048;4.686;2023-04-03T10:14:38;103012.25;;;10.78;100.00
44140;BME280;29803;51.048;4.686;2023-04-03T10:23:05;103018.25;;;10.21;100.00
44140;BME280;29803;51.048;4.686;2023-04-03T10:25:46;103012.16;;;9.93;100.00
44140;BME280;29803;51.048;4.686;2023-04-03T10:34:40;103011.19;;;10.07;100.00
44140;BME280;29803;51.048;4.686;2023-04-03T10:37:22;103008.53;;;9.94;100.00
44140;BME280;29803;51.048;4.686;2023-04-03T10:40:00;103005.34;;;9.89;100.00
44140;BME280;29803;51.048;4.686;2023-04-03T10:45:55;102995.78;;;9.85;100.00
44140;BME280;29803;51.048;4.686;2023-04-03T10:54:20;102990.56;;;9.45;98.63
44140;BME280;29803;51.048;4.686;2023-04-03T10:56:57;102987.63;;;9.23;100.00
44140;BME280;29803;51.048;4.686;2023-04-03T10:59:33;102986.88;;;9.72;100.00
44140;BME280;29803;51.048;4.686;2023-04-03T11:02:19;102999.13;;;9.76;100.00
44140;BME280;29803;51.048;4.686;2023-04-03T11:05:02;102994.50;;;9.78;100.00
44140;BME280;29803;51.048;4.686;2023-04-03T11:07:53;102988.50;;;9.74;100.00
44140;BME280;29803;51.048;4.686;2023-04-03T11:10:35;102977.75;;;9.87;100.00
44140;BME280;29803;51.048;4.686;2023-04-03T11:15:42;102971.66;;;10.22;100.00
44140;BME280;29803;51.048;4.686;2023-04-03T11:18:19;102969.72;;;10.36;100.00
44140;BME280;29803;51.048;4.686;2023-04-03T11:21:00;102975.88;;;10.26;100.00
44140;BME280;29803;51.048;4.686;2023-04-03T11:23:35;102972.47;;;10.11;89.18
44140;BME280;29803;51.048;4.686;2023-04-03T11:26:11;102962.00;;;10.32;99.49
44140;BME280;29803;51.048;4.686;2023-04-03T11:28:41;102966.34;;;10.46;86.36
44140;BME280;29803;51.048;4.686;2023-04-03T11:34:37;102961.25;;;9.80;68.67
44140;BME280;29803;51.048;4.686;2023-04-03T11:37:17;102959.19;;;9.97;68.20
44140;BME280;29803;51.048;4.686;2023-04-03T11:40:22;102940.91;;;10.15;76.03
44140;BME280;29803;51.048;4.686;2023-04-03T11:43:04;102950.94;;;10.00;71.11
44140;BME280;29803;51.048;4.686;2023-04-03T11:45:38;102944.84;;;9.72;60.63
44140;BME280;29803;51.048;4.686;2023-04-03T11:50:51;102939.56;;;9.96;66.49
44140;BME280;29803;51.048;4.686;2023-04-03T11:53:40;102931.41;;;9.98;61.70
44140;BME280;29803;51.048;4.686;2023-04-03T11:56:30;102938.00;;;9.81;65.81
44140;BME280;29803;51.048;4.686;2023-04-03T12:02:00;102934.66;;;10.27;63.54
44140;BME280;29803;51.048;4.686;2023-04-03T12:04:31;102932.66;;;10.42;60.53
44140;BME280;29803;51.048;4.686;2023-04-03T12:07:13;102935.34;;;10.42;55.71
44140;BME280;29803;51.048;4.686;2023-04-03T12:12:36;102935.84;;;10.71;57.35
44140;BME280;29803;51.048;4.686;2023-04-03T12:21:10;102915.16;;;10.12;58.55
44140;BME280;29803;51.048;4.686;2023-04-03T12:24:04;102922.88;;;10.29;59.69
44140;BME280;29803;51.048;4.686;2023-04-03T12:35:27;102901.94;;;10.22;59.12
44140;BME280;29803;51.048;4.686;2023-04-03T12:38:21;102902.25;;;10.30;62.37
44140;BME280;29803;51.048;4.686;2023-04-03T12:47:23;102897.50;;;10.33;61.95
44140;BME280;29803;51.048;4.686;2023-04-03T12:49:56;102901.91;;;10.34;67.67
44140;BME280;29803;51.048;4.686;2023-04-03T12:55:03;102884.41;;;10.29;78.25
44140;BME280;29803;51.048;4.686;2023-04-03T12:57:37;102884.31;;;10.30;73.40
44140;BME280;29803;51.048;4.686;2023-04-03T13:02:57;102883.53;;;10.41;76.36
44140;BME280;29803;51.048;4.686;2023-04-03T13:05:29;102883.88;;;10.72;79.69
44140;BME280;29803;51.048;4.686;2023-04-03T13:08:04;102886.56;;;10.83;68.69
44140;BME280;29803;51.048;4.686;2023-04-03T13:10:48;102876.88;;;11.15;83.31
44140;BME280;29803;51.048;4.686;2023-04-03T13:13:20;102884.84;;;10.71;68.12
44140;BME280;29803;51.048;4.686;2023-04-03T13:15:53;102881.06;;;10.14;66.73
44140;BME280;29803;51.048;4.686;2023-04-03T13:18:44;102883.81;;;10.12;62.65
44140;BME280;29803;51.048;4.686;2023-04-03T13:21:24;102878.78;;;10.45;72.32
44140;BME280;29803;51.048;4.686;2023-04-03T13:23:57;102871.88;;;10.29;64.69
44140;BME280;29803;51.048;4.686;2023-04-03T13:26:30;102873.63;;;10.42;62.85
44140;BME280;29803;51.048;4.686;2023-04-03T13:29:05;102874.50;;;10.42;66.11
44140;BME280;29803;51.048;4.686;2023-04-03T13:31:38;102873.19;;;10.59;72.74
44140;BME280;29803;51.048;4.686;2023-04-03T13:36:44;102858.59;;;10.74;65.98
44140;BME280;29803;51.048;4.686;2023-04-03T13:41:49;102860.69;;;10.82;63.30
44140;BME280;29803;51.048;4.686;2023-04-03T13:46:54;102858.00;;;10.71;58.79
44140;BME280;29803;51.048;4.686;2023-04-03T13:51:57;102851.81;;;10.93;57.27
44140;BME280;29803;51.048;4.686;2023-04-03T13:54:33;102847.28;;;10.82;55.45
44140;BME280;29803;51.048;4.686;2023-04-03T13:57:13;102851.53;;;10.73;57.02
44140;BME280;29803;51.048;4.686;2023-04-03T13:59:44;102846.81;;;10.42;53.88
44140;BME280;29803;51.048;4.686;2023-04-03T14:02:18;102836.22;;;10.51;51.17
44140;BME280;29803;51.048;4.686;2023-04-03T14:04:53;102842.38;;;10.65;55.21
44140;BME280;29803;51.048;4.686;2023-04-03T14:07:30;102842.44;;;10.52;52.92
44140;BME280;29803;51.048;4.686;2023-04-03T14:10:01;102844.09;;;10.30;49.82
44140;BME280;29803;51.048;4.686;2023-04-03T14:12:35;102833.69;;;10.26;53.64
44140;BME280;29803;51.048;4.686;2023-04-03T14:15:27;102823.16;;;10.23;54.92
44140;BME280;29803;51.048;4.686;2023-04-03T14:17:58;102816.59;;;10.62;62.60
44140;BME280;29803;51.048;4.686;2023-04-03T14:20:28;102821.53;;;10.79;54.79
44140;BME280;29803;51.048;4.686;2023-04-03T14:22:59;102819.16;;;10.63;48.32
44140;BME280;29803;51.048;4.686;2023-04-03T14:25:30;102823.03;;;10.48;49.61
44140;BME280;29803;51.048;4.686;2023-04-03T14:28:06;102816.84;;;10.59;58.31
44140;BME280;29803;51.048;4.686;2023-04-03T14:30:44;102817.03;;;10.80;61.80
44140;BME280;29803;51.048;4.686;2023-04-03T14:33:18;102802.97;;;10.87;60.60
44140;BME280;29803;51.048;4.686;2023-04-03T14:35:49;102823.34;;;10.79;52.13
44140;BME280;29803;51.048;4.686;2023-04-03T14:38:23;102826.50;;;10.61;48.96
44140;BME280;29803;51.048;4.686;2023-04-03T14:40:54;102810.03;;;10.55;47.74
44140;BME280;29803;51.048;4.686;2023-04-03T14:43:25;102801.72;;;10.69;50.10
44140;BME280;29803;51.048;4.686;2023-04-03T14:45:56;102808.97;;;10.80;54.46
44140;BME280;29803;51.048;4.686;2023-04-03T14:48:28;102802.22;;;10.63;50.89
44140;BME280;29803;51.048;4.686;2023-04-03T14:51:00;102801.91;;;10.44;49.91
44140;BME280;29803;51.048;4.686;2023-04-03T14:53:31;102812.22;;;10.61;52.46
44140;BME280;29803;51.048;4.686;2023-04-03T14:58:58;102795.66;;;10.78;49.36
44140;BME280;29803;51.048;4.686;2023-04-03T15:01:28;102800.88;;;10.69;49.32
44140;BME280;29803;51.048;4.686;2023-04-03T15:03:59;102798.66;;;10.62;52.65
44140;BME280;29803;51.048;4.686;2023-04-03T15:06:29;102799.34;;;10.42;48.59